Time;durP1;ratioP1;P1;durP2;ratioP2;P2;SDS_P1;SDS_P2;PMS_P1;PMS_P2;Temp;Humidity;BMP_temperature;BMP_pressure;BME280_temperature;BME280_humidity;BME280_pressure;Samples;Min_cycle;Max_cycle;Signal;HPM_P1;HPM_P2
2021/12/27 00:02:12;;;;;;;10.23;9.20;;;-2.40;99.90;;;;;;5104845;27;21055;-59
2021/12/27 00:04:52;;;;;;;8.32;7.63;;;-2.40;99.90;;;;;;5084064;28;20663;-59
2021/12/27 00:07:32;;;;;;;9.50;8.60;;;-2.40;99.90;;;;;;5085023;28;20671;-58
2021/12/27 00:10:13;;;;;;;8.70;7.90;;;-2.40;99.90;;;;;;5105182;27;20558;-58
2021/12/27 00:12:53;;;;;;;10.13;9.13;;;-2.40;99.90;;;;;;5084781;28;21208;-58
2021/12/27 00:15:33;;;;;;;8.90;7.97;;;-2.40;99.90;;;;;;5084423;27;21076;-59
2021/12/27 00:18:13;;;;;;;9.10;8.30;;;-2.40;99.90;;;;;;5085079;27;20881;-58
2021/12/27 00:20:53;;;;;;;9.80;8.90;;;-2.40;99.90;;;;;;5105270;27;20665;-58
2021/12/27 00:23:33;;;;;;;8.43;7.60;;;-2.30;99.90;;;;;;5084926;27;20539;-58
2021/12/27 00:26:12;;;;;;;9.68;8.77;;;-2.30;99.90;;;;;;5105831;27;20542;-58
2021/12/27 00:28:52;;;;;;;9.50;8.60;;;-2.30;99.90;;;;;;5082341;28;20679;-59
2021/12/27 00:31:32;;;;;;;9.25;8.40;;;-2.30;99.90;;;;;;5066744;27;20595;-58
2021/12/27 00:34:11;;;;;;;8.63;7.82;;;-2.30;99.90;;;;;;5121171;27;20683;-60
2021/12/27 00:36:51;;;;;;;8.43;7.63;;;-2.30;99.90;;;;;;5104961;27;21515;-60
2021/12/27 00:39:31;;;;;;;9.82;8.85;;;-2.30;99.90;;;;;;5103195;27;21194;-58
2021/12/27 00:42:11;;;;;;;8.63;7.82;;;-2.30;99.90;;;;;;5084233;28;20663;-58
2021/12/27 00:44:51;;;;;;;9.73;8.40;;;-2.30;99.90;;;;;;5104631;27;20674;-58
2021/12/27 00:47:31;;;;;;;8.77;7.97;;;-2.30;99.90;;;;;;5105695;27;20526;-59
2021/12/27 00:50:12;;;;;;;9.52;8.63;;;-2.30;99.90;;;;;;5105609;27;20562;-58
2021/12/27 00:52:52;;;;;;;8.43;7.72;;;-2.30;99.90;;;;;;5104483;27;20661;-60
2021/12/27 00:55:32;;;;;;;9.48;8.63;;;-2.20;99.90;;;;;;5084025;27;20541;-59
2021/12/27 00:58:12;;;;;;;9.35;8.45;;;-2.20;99.90;;;;;;5084266;28;20675;-58
2021/12/27 01:00:52;;;;;;;8.50;7.70;;;-2.20;99.90;;;;;;5125571;27;20548;-59
2021/12/27 01:03:31;;;;;;;9.45;8.52;;;-2.20;99.90;;;;;;5084514;27;20973;-58
2021/12/27 01:06:12;;;;;;;10.05;9.13;;;-2.20;99.90;;;;;;5083428;27;21145;-59
2021/12/27 01:08:52;;;;;;;9.70;8.00;;;-2.20;99.90;;;;;;5083615;27;20660;-59
2021/12/27 01:11:41;;;;;;;8.70;7.90;;;-2.20;99.90;;;;;;5082100;27;20915;-59
2021/12/27 01:14:37;;;;;;;8.85;8.05;;;-2.20;99.90;;;;;;5113709;27;20685;-59
2021/12/27 01:17:18;;;;;;;8.50;7.68;;;-2.20;99.90;;;;;;5105556;27;20673;-58
2021/12/27 01:19:57;;;;;;;8.77;7.85;;;-2.10;99.90;;;;;;5081571;28;20704;-58
2021/12/27 01:22:37;;;;;;;9.25;8.32;;;-2.10;99.90;;;;;;5139763;27;21049;-59
2021/12/27 01:25:17;;;;;;;9.35;8.48;;;-2.10;99.90;;;;;;5078288;27;21010;-59
2021/12/27 01:27:57;;;;;;;8.93;8.13;;;-2.10;99.90;;;;;;5083217;28;20668;-59
2021/12/27 01:30:46;;;;;;;9.15;8.25;;;-2.00;99.90;;;;;;5073195;28;20678;-58
2021/12/27 01:33:25;;;;;;;8.98;8.10;;;-2.00;99.90;;;;;;5084391;28;20667;-58
2021/12/27 01:36:06;;;;;;;9.40;8.50;;;-2.00;99.90;;;;;;5082887;27;20547;-57
2021/12/27 01:38:47;;;;;;;9.23;8.43;;;-2.10;99.90;;;;;;5084264;28;20675;-60
2021/12/27 01:41:28;;;;;;;9.10;8.20;;;-2.10;99.90;;;;;;5105324;27;21079;-58
2021/12/27 01:44:08;;;;;;;8.93;8.18;;;-2.10;99.90;;;;;;5084428;28;21195;-58
2021/12/27 01:46:47;;;;;;;9.82;8.93;;;-2.10;99.90;;;;;;5138725;27;20661;-58
2021/12/27 01:49:27;;;;;;;9.13;8.32;;;-2.10;99.90;;;;;;5144986;27;20542;-58
2021/12/27 01:52:07;;;;;;;9.48;8.57;;;-2.10;99.90;;;;;;5084677;28;20679;-58
2021/12/27 01:54:46;;;;;;;9.32;8.52;;;-2.10;99.90;;;;;;5124149;27;20573;-60
2021/12/27 01:57:26;;;;;;;9.73;8.82;;;-2.10;99.90;;;;;;5084553;28;21247;-58
2021/12/27 02:00:08;;;;;;;8.80;7.90;;;-2.10;99.90;;;;;;5112506;27;20543;-59
2021/12/27 02:02:48;;;;;;;10.20;9.30;;;-2.20;99.90;;;;;;5104990;27;20666;-59
2021/12/27 02:05:27;;;;;;;9.48;8.68;;;-2.20;99.90;;;;;;5102654;27;20550;-60
2021/12/27 02:08:07;;;;;;;9.52;8.57;;;-2.10;99.90;;;;;;5103150;27;20546;-60
2021/12/27 02:10:49;;;;;;;9.70;8.80;;;-2.10;99.90;;;;;;5138535;27;20625;-59
2021/12/27 02:13:28;;;;;;;10.00;9.05;;;-2.10;99.90;;;;;;5115265;27;20550;-59
2021/12/27 02:16:08;;;;;;;9.20;8.30;;;-2.10;99.90;;;;;;5122320;27;20682;-59
2021/12/27 02:18:49;;;;;;;9.98;9.07;;;-2.10;99.90;;;;;;5078571;27;20684;-58
2021/12/27 02:21:29;;;;;;;9.68;8.77;;;-2.10;99.90;;;;;;5083744;28;21213;-58
2021/12/27 02:24:10;;;;;;;9.43;8.18;;;-2.10;99.90;;;;;;5084041;27;21084;-58
2021/12/27 02:26:51;;;;;;;9.55;8.75;;;-2.00;99.90;;;;;;5105067;27;20542;-58
2021/12/27 02:29:30;;;;;;;9.70;8.90;;;-2.00;99.90;;;;;;5094274;27;21054;-58
2021/12/27 02:32:11;;;;;;;9.18;8.15;;;-2.10;99.90;;;;;;5103606;27;20587;-59
2021/12/27 02:34:50;;;;;;;10.38;9.32;;;-2.00;99.90;;;;;;5102855;27;20682;-58
2021/12/27 02:37:30;;;;;;;10.23;9.32;;;-2.00;99.90;;;;;;5124514;27;20540;-58
2021/12/27 02:40:11;;;;;;;10.55;9.55;;;-2.00;99.90;;;;;;5084011;28;20676;-58
2021/12/27 02:43:00;;;;;;;9.40;8.60;;;-2.00;99.90;;;;;;5125080;27;20543;-59
2021/12/27 02:45:43;;;;;;;10.68;9.73;;;-2.00;99.90;;;;;;5145396;27;20560;-58
2021/12/27 02:48:24;;;;;;;10.10;9.20;;;-1.90;99.90;;;;;;5125624;27;20548;-58
2021/12/27 02:51:04;;;;;;;11.45;10.10;;;-1.90;99.90;;;;;;5104531;27;20549;-60
2021/12/27 02:53:44;;;;;;;11.20;10.10;;;-1.90;99.90;;;;;;5125339;27;20589;-59
2021/12/27 02:56:24;;;;;;;10.27;9.38;;;-1.90;99.90;;;;;;5084541;28;20535;-58
2021/12/27 02:59:03;;;;;;;11.27;9.73;;;-1.80;99.90;;;;;;5083186;27;20547;-59
2021/12/27 03:01:43;;;;;;;10.75;9.75;;;-1.80;99.90;;;;;;5062496;28;20993;-58
2021/12/27 03:04:23;;;;;;;13.93;10.23;;;-1.80;99.90;;;;;;5080510;27;20548;-58
2021/12/27 03:07:03;;;;;;;10.43;9.43;;;-1.80;99.90;;;;;;5104095;27;21193;-58
2021/12/27 03:09:42;;;;;;;11.27;10.38;;;-1.80;99.90;;;;;;5100958;27;20687;-59
2021/12/27 03:12:22;;;;;;;12.02;10.85;;;-1.80;99.90;;;;;;5142519;27;20534;-60
2021/12/27 03:15:02;;;;;;;11.73;10.60;;;-1.80;99.90;;;;;;5106216;27;20557;-58
2021/12/27 03:17:43;;;;;;;12.32;11.18;;;-1.80;99.90;;;;;;5121762;27;20579;-59
2021/12/27 03:20:26;;;;;;;11.98;10.85;;;-1.80;99.90;;;;;;5074942;28;20681;-58
2021/12/27 03:23:05;;;;;;;11.18;10.07;;;-1.80;99.90;;;;;;5078776;28;21220;-57
2021/12/27 03:25:44;;;;;;;10.80;9.80;;;-1.90;99.90;;;;;;5082254;27;20687;-60
2021/12/27 03:28:24;;;;;;;11.73;10.52;;;-1.90;99.90;;;;;;5104068;27;20546;-59
2021/12/27 03:31:05;;;;;;;12.18;11.07;;;-1.90;99.90;;;;;;5109895;27;20561;-59
2021/12/27 03:33:44;;;;;;;10.93;9.93;;;-1.90;99.90;;;;;;5104378;27;20674;-58
2021/12/27 03:36:24;;;;;;;11.23;10.13;;;-1.90;99.90;;;;;;5149059;27;20551;-59
2021/12/27 03:39:07;;;;;;;11.63;10.45;;;-1.90;99.90;;;;;;5083610;27;21084;-58
2021/12/27 03:41:47;;;;;;;11.80;10.80;;;-1.90;99.90;;;;;;5104911;27;21110;-59
2021/12/27 03:44:26;;;;;;;12.00;10.85;;;-1.90;99.90;;;;;;5103962;27;20549;-58
2021/12/27 03:47:07;;;;;;;11.32;10.20;;;-1.90;99.90;;;;;;5083751;28;20660;-58
2021/12/27 03:49:46;;;;;;;12.52;11.43;;;-1.90;99.90;;;;;;5080288;27;20556;-59
2021/12/27 03:52:26;;;;;;;11.50;10.50;;;-1.90;99.90;;;;;;5084707;27;20539;-59
2021/12/27 03:55:07;;;;;;;12.50;11.30;;;-1.90;99.90;;;;;;5124949;27;20547;-59
2021/12/27 03:57:52;;;;;;;11.60;10.50;;;-1.90;99.90;;;;;;5084966;27;20531;-59
2021/12/27 04:00:46;;;;;;;11.40;10.40;;;-1.90;99.90;;;;;;5116875;27;20558;-57
2021/12/27 04:03:26;;;;;;;11.40;10.40;;;-1.90;99.90;;;;;;5145786;27;20539;-59
2021/12/27 04:06:06;;;;;;;12.48;11.27;;;-1.90;99.90;;;;;;5104341;27;21059;-59
2021/12/27 04:08:46;;;;;;;11.02;10.00;;;-1.90;99.90;;;;;;5143435;27;21202;-60
2021/12/27 04:11:25;;;;;;;11.60;10.50;;;-1.90;99.90;;;;;;5076364;27;20710;-59
2021/12/27 04:14:05;;;;;;;12.10;10.90;;;-1.90;99.90;;;;;;5103951;27;20669;-58
2021/12/27 04:16:46;;;;;;;11.55;10.45;;;-1.90;99.90;;;;;;5156015;27;20677;-58
2021/12/27 04:19:25;;;;;;;12.20;11.05;;;-1.90;99.90;;;;;;5103932;27;20947;-58
2021/12/27 04:22:05;;;;;;;12.68;11.38;;;-1.90;99.90;;;;;;5084525;27;20566;-60
2021/12/27 04:24:45;;;;;;;12.35;11.25;;;-1.90;99.90;;;;;;5083404;27;21080;-58
2021/12/27 04:27:24;;;;;;;11.73;10.70;;;-1.90;99.90;;;;;;5139454;27;20677;-60
2021/12/27 04:30:06;;;;;;;11.73;10.63;;;-1.80;99.90;;;;;;5148755;27;20550;-58
2021/12/27 04:32:46;;;;;;;10.90;9.90;;;-1.80;99.90;;;;;;5085130;28;20547;-58
2021/12/27 04:35:26;;;;;;;12.82;11.65;;;-1.80;99.90;;;;;;5083949;28;20681;-59
2021/12/27 04:38:06;;;;;;;11.80;10.77;;;-1.80;99.90;;;;;;5083312;28;20659;-57
2021/12/27 04:40:49;;;;;;;12.45;11.35;;;-1.80;99.90;;;;;;5067686;27;20606;-60
2021/12/27 04:43:28;;;;;;;12.63;11.38;;;-1.90;99.90;;;;;;5116395;27;21033;-58
2021/12/27 04:46:08;;;;;;;12.32;11.23;;;-1.80;99.90;;;;;;5083086;27;21056;-58
2021/12/27 04:48:51;;;;;;;12.18;10.90;;;-1.80;99.90;;;;;;5103982;27;21202;-59
2021/12/27 04:51:31;;;;;;;11.80;10.60;;;-1.80;99.90;;;;;;5125763;27;20544;-59
2021/12/27 04:54:11;;;;;;;13.32;12.15;;;-1.80;99.90;;;;;;5084495;28;20753;-58
2021/12/27 04:56:50;;;;;;;13.02;11.77;;;-1.90;99.90;;;;;;5084882;27;20660;-58
2021/12/27 04:59:30;;;;;;;13.05;11.88;;;-1.90;99.90;;;;;;5124656;27;20540;-58
2021/12/27 05:02:11;;;;;;;13.25;11.95;;;-1.80;99.90;;;;;;5125184;27;20934;-58
2021/12/27 05:04:50;;;;;;;13.32;12.13;;;-1.80;99.90;;;;;;5119227;27;20552;-58
2021/12/27 05:07:30;;;;;;;12.52;11.35;;;-1.80;99.90;;;;;;5104896;27;20553;-59
2021/12/27 05:10:10;;;;;;;12.45;11.32;;;-1.80;99.90;;;;;;5082892;28;20559;-58
2021/12/27 05:12:49;;;;;;;10.85;9.95;;;-1.80;99.90;;;;;;5104899;27;20698;-59
2021/12/27 05:15:29;;;;;;;12.63;11.43;;;-1.80;99.90;;;;;;5121822;27;20972;-58
2021/12/27 05:18:09;;;;;;;13.35;12.07;;;-1.80;99.90;;;;;;5084398;27;20543;-59
2021/12/27 05:20:49;;;;;;;12.27;11.27;;;-1.80;99.90;;;;;;5059460;27;21121;-58
2021/12/27 05:23:30;;;;;;;13.88;11.80;;;-1.80;99.90;;;;;;5080460;27;20580;-59
2021/12/27 05:26:10;;;;;;;12.88;11.57;;;-1.80;99.90;;;;;;5072426;27;20587;-60
2021/12/27 05:28:50;;;;;;;12.57;11.48;;;-1.70;99.90;;;;;;5078681;28;21143;-57
2021/12/27 05:31:30;;;;;;;12.93;11.73;;;-1.70;99.90;;;;;;5142764;27;20681;-58
2021/12/27 05:34:10;;;;;;;12.88;11.68;;;-1.70;99.90;;;;;;5074096;28;20693;-58
2021/12/27 05:36:50;;;;;;;12.50;11.50;;;-1.70;99.90;;;;;;5101563;27;20561;-59
2021/12/27 05:39:29;;;;;;;13.07;11.95;;;-1.60;99.90;;;;;;5063551;28;21071;-59
2021/12/27 05:42:10;;;;;;;13.77;12.57;;;-1.60;99.90;;;;;;5111229;27;20600;-59
2021/12/27 05:44:49;;;;;;;12.57;11.45;;;-1.70;99.90;;;;;;5119203;27;20545;-59
2021/12/27 05:47:29;;;;;;;12.73;11.63;;;-1.70;99.90;;;;;;5091337;27;20679;-58
2021/12/27 05:50:10;;;;;;;13.23;12.10;;;-1.60;99.90;;;;;;5092574;27;20570;-58
2021/12/27 05:52:50;;;;;;;12.23;11.02;;;-1.60;99.90;;;;;;5084020;27;20936;-60
2021/12/27 05:55:30;;;;;;;12.25;11.15;;;-1.70;99.90;;;;;;5077688;27;20682;-59
2021/12/27 05:58:10;;;;;;;12.77;11.63;;;-1.70;99.90;;;;;;5088155;27;20546;-58
2021/12/27 06:00:50;;;;;;;13.05;11.93;;;-1.60;99.90;;;;;;5079033;28;20712;-59
2021/12/27 06:03:29;;;;;;;12.95;11.70;;;-1.60;99.90;;;;;;5102915;27;20546;-58
2021/12/27 06:06:10;;;;;;;12.70;11.57;;;-1.60;99.90;;;;;;5092395;27;20546;-58
2021/12/27 06:08:49;;;;;;;12.60;11.57;;;-1.60;99.90;;;;;;5133325;27;20547;-59
2021/12/27 06:11:29;;;;;;;12.63;11.52;;;-1.70;99.90;;;;;;5093574;27;20695;-59
2021/12/27 06:14:09;;;;;;;13.30;12.00;;;-1.60;99.90;;;;;;5081134;27;20698;-59
2021/12/27 06:16:48;;;;;;;13.82;12.55;;;-1.70;99.90;;;;;;5087127;27;20885;-58
2021/12/27 06:19:29;;;;;;;13.52;12.23;;;-1.70;99.90;;;;;;5082174;28;20692;-58
2021/12/27 06:22:09;;;;;;;12.68;11.60;;;-1.60;99.90;;;;;;5083529;28;20680;-59
2021/12/27 06:24:48;;;;;;;13.00;11.80;;;-1.60;99.90;;;;;;5083677;27;20544;-58
2021/12/27 06:27:28;;;;;;;13.38;12.07;;;-1.60;99.90;;;;;;5084994;27;20536;-59
2021/12/27 06:30:10;;;;;;;13.80;12.40;;;-1.60;99.90;;;;;;5144674;27;21247;-59
2021/12/27 06:32:49;;;;;;;13.90;12.65;;;-1.60;99.90;;;;;;5101644;27;20685;-58
2021/12/27 06:35:29;;;;;;;13.15;11.85;;;-1.60;99.90;;;;;;5063733;27;20553;-59
2021/12/27 06:38:09;;;;;;;13.75;12.55;;;-1.50;99.90;;;;;;5139977;27;20564;-59
2021/12/27 06:40:49;;;;;;;13.68;12.48;;;-1.50;99.90;;;;;;5081699;27;21250;-58
2021/12/27 06:43:30;;;;;;;13.70;12.50;;;-1.50;99.90;;;;;;5084573;27;20566;-59
2021/12/27 06:46:10;;;;;;;13.63;12.32;;;-1.50;99.90;;;;;;5104352;27;21021;-58
2021/12/27 06:48:50;;;;;;;14.10;12.60;;;-1.50;99.90;;;;;;5084382;27;20895;-58
2021/12/27 06:51:29;;;;;;;12.27;11.18;;;-1.60;99.90;;;;;;5104913;27;20549;-60
2021/12/27 06:54:09;;;;;;;13.57;12.35;;;-1.50;99.90;;;;;;5084737;27;20549;-59
2021/12/27 06:56:50;;;;;;;14.20;12.73;;;-1.50;99.90;;;;;;5104455;27;20666;-58
2021/12/27 06:59:29;;;;;;;12.93;11.75;;;-1.50;99.90;;;;;;5145570;27;21013;-58
2021/12/27 07:02:10;;;;;;;13.40;12.20;;;-1.60;99.90;;;;;;5104996;27;21183;-58
2021/12/27 07:04:49;;;;;;;13.43;12.15;;;-1.50;99.90;;;;;;5104184;27;20930;-60
2021/12/27 07:07:28;;;;;;;13.80;12.55;;;-1.50;99.90;;;;;;5105146;27;20557;-59
2021/12/27 07:10:11;;;;;;;14.18;12.98;;;-1.50;99.90;;;;;;5084481;28;20683;-58
2021/12/27 07:12:50;;;;;;;13.43;12.20;;;-1.50;99.90;;;;;;5105368;27;20666;-58
2021/12/27 07:15:30;;;;;;;12.93;11.80;;;-1.50;99.90;;;;;;5083418;27;20532;-58
2021/12/27 07:18:09;;;;;;;13.95;12.63;;;-1.50;99.90;;;;;;5146580;27;20542;-59
2021/12/27 07:20:49;;;;;;;13.43;12.13;;;-1.50;99.90;;;;;;5082174;27;20711;-60
2021/12/27 07:23:29;;;;;;;14.43;13.05;;;-1.50;99.90;;;;;;5155717;27;20552;-58
2021/12/27 07:26:09;;;;;;;13.50;12.30;;;-1.50;99.90;;;;;;5146236;27;20665;-58
2021/12/27 07:28:49;;;;;;;14.45;12.93;;;-1.50;99.90;;;;;;5084477;28;20665;-58
2021/12/27 07:31:28;;;;;;;14.10;12.85;;;-1.50;99.90;;;;;;5084506;27;20569;-58
2021/12/27 07:34:08;;;;;;;14.65;13.35;;;-1.50;99.90;;;;;;5112074;27;20944;-59
2021/12/27 07:36:49;;;;;;;14.27;12.88;;;-1.50;99.90;;;;;;5146443;27;21059;-58
2021/12/27 07:39:28;;;;;;;13.73;12.43;;;-1.50;99.90;;;;;;5125262;27;21053;-59
2021/12/27 07:42:08;;;;;;;15.38;13.90;;;-1.50;99.90;;;;;;5101105;27;20691;-59
2021/12/27 07:44:48;;;;;;;15.70;14.30;;;-1.50;99.90;;;;;;5082601;27;20560;-58
2021/12/27 07:47:27;;;;;;;16.98;15.52;;;-1.50;99.90;;;;;;5084379;27;20581;-58
2021/12/27 07:50:08;;;;;;;16.02;14.52;;;-1.50;99.90;;;;;;5145692;27;21046;-59
2021/12/27 07:52:49;;;;;;;15.00;13.65;;;-1.40;99.90;;;;;;5084636;28;20663;-59
2021/12/27 07:55:29;;;;;;;14.85;13.35;;;-1.30;99.90;;;;;;5083838;28;20575;-59
2021/12/27 07:58:08;;;;;;;14.70;13.30;;;-1.30;99.90;;;;;;5084309;27;21034;-58
2021/12/27 08:00:50;;;;;;;14.77;13.48;;;-1.30;99.90;;;;;;5083916;28;20696;-58
2021/12/27 08:03:30;;;;;;;16.23;14.75;;;-1.20;99.90;;;;;;5084468;28;20668;-58
2021/12/27 08:06:09;;;;;;;15.10;13.75;;;-1.20;99.90;;;;;;5084003;28;20540;-59
2021/12/27 08:08:49;;;;;;;15.23;13.73;;;-1.20;99.90;;;;;;5084113;27;20543;-59
2021/12/27 08:11:29;;;;;;;15.82;14.32;;;-1.10;99.90;;;;;;5084423;27;21165;-58
2021/12/27 08:14:10;;;;;;;14.55;13.13;;;-1.00;99.90;;;;;;5084485;27;20547;-58
2021/12/27 08:16:49;;;;;;;16.65;15.07;;;-1.00;99.90;;;;;;5145913;27;20665;-59
2021/12/27 08:19:29;;;;;;;15.73;13.13;;;-1.00;99.90;;;;;;5084511;28;21149;-58
2021/12/27 08:22:08;;;;;;;16.42;14.80;;;-1.00;99.90;;;;;;5084781;28;20664;-58
2021/12/27 08:24:48;;;;;;;14.45;13.10;;;-1.00;99.90;;;;;;5076530;28;20625;-58
2021/12/27 08:27:30;;;;;;;14.98;13.40;;;-1.00;99.90;;;;;;5104744;27;20674;-58
2021/12/27 08:30:12;;;;;;;15.57;14.05;;;-1.00;99.90;;;;;;5157659;27;21215;-60
2021/12/27 08:32:52;;;;;;;14.77;13.27;;;-1.00;99.90;;;;;;5083192;28;20668;-59
2021/12/27 08:35:31;;;;;;;14.70;13.30;;;-1.00;99.90;;;;;;5145178;27;20677;-58
2021/12/27 08:38:11;;;;;;;16.00;14.30;;;-1.00;99.90;;;;;;5104917;27;20546;-60
2021/12/27 08:40:50;;;;;;;15.00;13.40;;;-0.90;99.90;;;;;;5081949;27;21163;-59
2021/12/27 08:43:30;;;;;;;14.63;13.25;;;-0.90;99.90;;;;;;5103343;27;20541;-59
2021/12/27 08:46:10;;;;;;;15.55;13.98;;;-0.90;99.90;;;;;;5082726;28;20535;-59
2021/12/27 08:48:50;;;;;;;15.32;13.63;;;-0.90;99.90;;;;;;5122374;27;20998;-59
2021/12/27 08:51:30;;;;;;;15.43;13.93;;;-0.80;99.90;;;;;;5082947;27;20647;-58
2021/12/27 08:54:09;;;;;;;15.13;13.73;;;-0.80;99.90;;;;;;5084574;28;20663;-58
2021/12/27 08:56:50;;;;;;;15.00;13.60;;;-0.60;99.90;;;;;;5083595;27;20551;-58
2021/12/27 08:59:29;;;;;;;13.90;12.52;;;-0.40;99.90;;;;;;5082406;27;20539;-59
2021/12/27 09:02:09;;;;;;;16.40;13.75;;;-0.20;99.90;;;;;;5144713;27;20673;-58
2021/12/27 09:04:50;;;;;;;17.58;15.73;;;-0.10;99.90;;;;;;5083796;28;20547;-56
2021/12/27 09:07:29;;;;;;;17.13;15.40;;;0.00;99.90;;;;;;5084859;28;20540;-57
2021/12/27 09:10:10;;;;;;;16.63;14.95;;;0.10;99.90;;;;;;5084230;27;20547;-59
2021/12/27 09:12:50;;;;;;;16.02;14.52;;;0.10;99.90;;;;;;5132861;27;21197;-58
2021/12/27 09:15:30;;;;;;;16.88;15.30;;;0.10;99.90;;;;;;5118691;27;20683;-59
2021/12/27 09:18:10;;;;;;;14.60;13.25;;;0.10;99.90;;;;;;5082495;27;20555;-58
2021/12/27 09:20:49;;;;;;;14.40;13.00;;;0.20;99.90;;;;;;5070827;28;20682;-58
2021/12/27 09:23:32;;;;;;;15.05;13.65;;;0.20;99.90;;;;;;5071766;27;20556;-58
2021/12/27 09:26:11;;;;;;;14.95;13.63;;;0.20;99.90;;;;;;5103043;27;20951;-58
2021/12/27 09:28:51;;;;;;;15.10;13.63;;;0.20;99.90;;;;;;5105095;27;20677;-58
2021/12/27 09:31:30;;;;;;;12.88;11.77;;;0.20;99.90;;;;;;5074689;27;20983;-58
2021/12/27 09:34:10;;;;;;;13.60;12.18;;;0.20;99.90;;;;;;5072098;27;20566;-58
2021/12/27 09:36:50;;;;;;;14.63;12.95;;;0.20;99.90;;;;;;5081930;28;20675;-58
2021/12/27 09:39:30;;;;;;;14.45;13.00;;;0.30;99.90;;;;;;5145269;27;20527;-57
2021/12/27 09:42:10;;;;;;;14.00;12.70;;;0.40;99.90;;;;;;5144627;27;20669;-58
2021/12/27 09:44:50;;;;;;;14.27;12.95;;;0.60;99.90;;;;;;5057530;27;20694;-59
2021/12/27 09:47:29;;;;;;;14.18;12.93;;;0.80;99.90;;;;;;5103497;27;21296;-58
2021/12/27 09:50:14;;;;;;;14.93;13.63;;;0.90;99.90;;;;;;5104963;27;20558;-58
2021/12/27 09:52:54;;;;;;;13.57;12.18;;;1.00;99.90;;;;;;5103382;27;20686;-59
2021/12/27 09:55:35;;;;;;;14.63;13.15;;;0.90;99.90;;;;;;5145444;27;20884;-59
2021/12/27 09:58:15;;;;;;;13.73;12.50;;;0.90;99.90;;;;;;5082500;27;20675;-59
2021/12/27 10:00:58;;;;;;;13.85;12.65;;;0.80;99.90;;;;;;5069954;27;20595;-59
2021/12/27 10:03:47;;;;;;;13.52;12.32;;;0.80;99.90;;;;;;5086159;27;20569;-58
2021/12/27 10:06:30;;;;;;;14.05;12.70;;;0.80;99.90;;;;;;5122689;27;20536;-58
2021/12/27 10:09:10;;;;;;;14.55;13.13;;;1.00;99.90;;;;;;5104022;27;20669;-57
2021/12/27 10:11:50;;;;;;;14.07;12.68;;;1.10;99.90;;;;;;5105329;27;21023;-58
2021/12/27 10:14:30;;;;;;;14.90;13.40;;;1.20;99.90;;;;;;5112958;27;20539;-59
2021/12/27 10:17:11;;;;;;;13.88;12.68;;;1.30;99.90;;;;;;5103854;27;20534;-59
2021/12/27 10:19:52;;;;;;;14.68;13.25;;;1.40;99.90;;;;;;5064088;27;20553;-58
2021/12/27 10:22:31;;;;;;;14.93;13.43;;;1.50;99.90;;;;;;5083139;28;21193;-58
2021/12/27 10:25:14;;;;;;;16.20;14.18;;;1.50;99.90;;;;;;5083120;27;20571;-58
2021/12/27 10:27:57;;;;;;;14.18;12.90;;;1.50;99.90;;;;;;5117293;27;20547;-58
2021/12/27 10:30:44;;;;;;;14.15;12.85;;;1.60;99.90;;;;;;5100620;27;20567;-58
2021/12/27 10:33:25;;;;;;;15.35;14.00;;;1.60;99.90;;;;;;5084817;27;21047;-59
2021/12/27 10:36:05;;;;;;;15.93;13.32;;;1.60;99.90;;;;;;5152834;27;20544;-58
2021/12/27 10:38:54;;;;;;;15.20;13.68;;;1.70;99.90;;;;;;5118083;27;20575;-57
2021/12/27 10:41:37;;;;;;;16.35;14.65;;;1.60;99.90;;;;;;5083418;28;20668;-58
2021/12/27 10:44:20;;;;;;;16.45;14.70;;;1.70;99.90;;;;;;5102128;27;20545;-59
2021/12/27 10:47:00;;;;;;;18.20;16.42;;;1.70;99.90;;;;;;5124870;27;21037;-58
2021/12/27 10:49:49;;;;;;;19.33;17.33;;;1.80;99.90;;;;;;5120952;27;20676;-58
2021/12/27 10:52:52;;;;;;;16.85;15.13;;;1.80;99.90;;;;;;5113938;27;20580;-57
2021/12/27 10:55:37;;;;;;;17.20;15.50;;;1.80;99.90;;;;;;5081776;27;21081;-58
2021/12/27 10:58:19;;;;;;;18.55;16.13;;;1.80;99.90;;;;;;5100402;27;20555;-58
2021/12/27 11:01:02;;;;;;;17.38;15.52;;;1.70;99.90;;;;;;5076213;27;20699;-59
2021/12/27 11:03:43;;;;;;;17.08;15.48;;;1.80;99.90;;;;;;5083188;28;20696;-58
2021/12/27 11:06:24;;;;;;;18.38;16.65;;;1.90;99.90;;;;;;5095956;27;20713;-58
2021/12/27 11:09:03;;;;;;;17.92;16.08;;;1.90;99.90;;;;;;5074427;27;20537;-61
2021/12/27 11:11:43;;;;;;;18.60;16.70;;;1.80;99.90;;;;;;5079406;28;20718;-58
2021/12/27 11:14:23;;;;;;;16.67;15.00;;;1.80;99.90;;;;;;5081986;27;20539;-58
2021/12/27 11:17:05;;;;;;;18.30;16.23;;;1.90;99.90;;;;;;5084189;28;20679;-58
2021/12/27 11:19:44;;;;;;;18.58;16.30;;;2.00;99.90;;;;;;5103396;27;20550;-59
2021/12/27 11:22:24;;;;;;;18.30;16.33;;;1.90;99.90;;;;;;5070306;28;20673;-58
2021/12/27 11:25:07;;;;;;;19.38;17.25;;;1.80;99.90;;;;;;5083168;27;20536;-59
2021/12/27 11:27:47;;;;;;;18.35;16.30;;;1.80;99.90;;;;;;5103871;27;20545;-58
2021/12/27 11:30:29;;;;;;;18.67;16.40;;;1.80;99.90;;;;;;5153712;27;20550;-59
2021/12/27 11:33:12;;;;;;;18.23;16.30;;;1.70;99.90;;;;;;5083438;28;20660;-58
2021/12/27 11:36:10;;;;;;;22.38;17.20;;;1.60;99.90;;;;;;5083696;28;20676;-58
2021/12/27 11:38:51;;;;;;;17.55;15.73;;;1.60;99.90;;;;;;5102762;27;20689;-58
2021/12/27 11:41:33;;;;;;;20.30;16.40;;;1.50;99.90;;;;;;5080745;28;21216;-58
2021/12/27 11:44:17;;;;;;;17.90;15.93;;;1.50;99.90;;;;;;5077519;27;20541;-59
2021/12/27 11:47:00;;;;;;;18.67;16.67;;;1.60;99.90;;;;;;5084547;27;20535;-58
2021/12/27 11:49:47;;;;;;;17.65;15.77;;;1.60;99.90;;;;;;5083809;27;20565;-59
2021/12/27 11:52:45;;;;;;;19.35;17.42;;;1.70;99.90;;;;;;5138578;27;20770;-58
2021/12/27 11:55:39;;;;;;;22.67;17.67;;;1.70;99.90;;;;;;5103835;27;20666;-59
2021/12/27 11:58:30;;;;;;;22.58;17.77;;;1.50;99.90;;;;;;5077826;28;20727;-57
2021/12/27 12:01:36;;;;;;;22.00;18.30;;;1.60;99.90;;;;;;5079395;28;20661;-58
2021/12/27 12:04:40;;;;;;;20.90;17.17;;;1.60;99.90;;;;;;5110500;27;20561;-58
2021/12/27 12:07:52;;;;;;;21.92;18.13;;;1.60;99.90;;;;;;5144926;27;20583;-58
2021/12/27 12:10:31;;;;;;;17.73;15.88;;;1.60;99.90;;;;;;5122751;27;20605;-58
2021/12/27 12:13:19;;;;;;;21.90;17.23;;;1.70;99.90;;;;;;5122687;27;20540;-58
2021/12/27 12:16:09;;;;;;;20.95;18.05;;;1.70;99.90;;;;;;5084007;28;20551;-58
2021/12/27 12:19:09;;;;;;;19.65;16.63;;;1.80;99.90;;;;;;5083134;27;20543;-57
2021/12/27 12:21:51;;;;;;;20.95;17.98;;;1.90;99.90;;;;;;5068099;27;20593;-58
2021/12/27 12:24:31;;;;;;;19.60;17.42;;;1.90;99.90;;;;;;5079582;27;20567;-59
2021/12/27 12:27:11;;;;;;;21.23;17.15;;;1.90;99.90;;;;;;5082561;28;20668;-57
2021/12/27 12:29:52;;;;;;;20.63;17.67;;;1.90;99.90;;;;;;5082990;28;20667;-58
2021/12/27 12:32:32;;;;;;;26.30;18.95;;;2.00;99.90;;;;;;5084443;27;20536;-58
2021/12/27 12:35:12;;;;;;;22.90;17.98;;;2.00;99.90;;;;;;5083012;28;20551;-58
2021/12/27 12:38:09;;;;;;;21.75;18.23;;;2.00;99.90;;;;;;5104579;27;20681;-58
2021/12/27 12:41:01;;;;;;;22.15;19.52;;;1.90;99.90;;;;;;5083338;27;20548;-59
2021/12/27 12:43:46;;;;;;;19.20;16.98;;;1.80;99.90;;;;;;5139037;27;20595;-59
2021/12/27 12:46:27;;;;;;;25.05;18.90;;;1.80;99.90;;;;;;5080849;28;20600;-58
2021/12/27 12:49:09;;;;;;;20.98;16.98;;;1.80;99.90;;;;;;5082571;27;20573;-58
2021/12/27 12:51:51;;;;;;;22.40;18.30;;;1.70;99.90;;;;;;5069245;27;21050;-58
2021/12/27 12:54:34;;;;;;;23.20;17.70;;;1.70;99.90;;;;;;5123895;27;20574;-57
2021/12/27 12:57:15;;;;;;;21.55;17.88;;;1.60;99.90;;;;;;5083211;27;20551;-58
2021/12/27 12:59:57;;;;;;;21.33;17.05;;;1.50;99.90;;;;;;5117706;27;20564;-58
2021/12/27 13:02:37;;;;;;;19.70;17.35;;;1.50;99.90;;;;;;5075853;27;20618;-58
2021/12/27 13:05:18;;;;;;;19.98;17.60;;;1.50;99.90;;;;;;5081113;27;21100;-58
2021/12/27 13:07:58;;;;;;;22.42;17.67;;;1.40;99.90;;;;;;5082762;28;20950;-58
2021/12/27 13:10:39;;;;;;;22.90;18.70;;;1.30;99.90;;;;;;5081421;27;20903;-58
2021/12/27 13:13:21;;;;;;;23.63;18.70;;;1.30;99.90;;;;;;5102465;27;20537;-58
2021/12/27 13:16:03;;;;;;;20.92;17.85;;;1.20;99.90;;;;;;5082775;28;20675;-58
2021/12/27 13:18:42;;;;;;;25.27;18.65;;;1.10;99.90;;;;;;5082839;27;20579;-58
2021/12/27 13:21:22;;;;;;;23.42;20.00;;;1.10;99.90;;;;;;5100345;27;20690;-58
2021/12/27 13:24:05;;;;;;;31.10;22.40;;;1.10;99.90;;;;;;5081653;28;21205;-58
2021/12/27 13:26:45;;;;;;;30.23;23.08;;;1.00;99.90;;;;;;5117600;27;20597;-58
2021/12/27 13:29:25;;;;;;;25.10;19.02;;;1.00;99.90;;;;;;5122865;27;20564;-58
2021/12/27 13:32:06;;;;;;;26.00;19.45;;;0.90;99.90;;;;;;5065812;28;20568;-58
2021/12/27 13:34:46;;;;;;;21.23;19.05;;;0.70;99.90;;;;;;5137901;27;21010;-59
2021/12/27 13:37:26;;;;;;;22.33;17.83;;;0.70;99.90;;;;;;5139603;27;20570;-59
2021/12/27 13:40:13;;;;;;;21.70;19.05;;;0.60;99.90;;;;;;5065510;28;20709;-59
2021/12/27 13:43:02;;;;;;;24.48;19.95;;;0.70;99.90;;;;;;5080102;28;20707;-58
2021/12/27 13:45:44;;;;;;;24.98;21.38;;;0.70;99.90;;;;;;5079215;27;20563;-58